Time;durP1;ratioP1;P1;durP2;ratioP2;P2;SDS_P1;SDS_P2;PMS_P1;PMS_P2;Temp;Humidity;BMP_temperature;BMP_pressure;BME280_temperature;BME280_humidity;BME280_pressure;Samples;Min_cycle;Max_cycle;Signal;HPM_P1;HPM_P2
2023/07/15 00:01:53;;;;;;;6.78;3.78;;;;;;;20.33;73.38;99465.19;5093301;28;20486;-80
2023/07/15 00:04:18;;;;;;;5.07;4.00;;;;;;;20.38;73.45;99470.91;5093189;28;20016;-80
2023/07/15 00:06:44;;;;;;;5.50;3.53;;;;;;;20.36;73.87;99476.34;5093479;28;20108;-80
2023/07/15 00:09:09;;;;;;;4.28;3.67;;;;;;;20.34;73.68;99458.94;5093249;28;20028;-80
2023/07/15 00:11:38;;;;;;;6.45;3.83;;;;;;;20.37;73.78;99470.06;5093211;28;20032;-80
2023/07/15 00:14:12;;;;;;;4.43;3.63;;;;;;;20.29;73.79;99455.88;5093203;28;20369;-80
2023/07/15 00:16:38;;;;;;;6.30;3.75;;;;;;;20.29;73.44;99458.50;5092680;28;20467;-80
2023/07/15 00:19:05;;;;;;;5.93;3.38;;;;;;;20.36;73.58;99457.84;5093191;28;20050;-80
2023/07/15 00:21:31;;;;;;;8.38;4.20;;;;;;;20.33;73.57;99454.63;5093006;28;20028;-80
2023/07/15 00:23:57;;;;;;;4.18;3.47;;;;;;;20.20;73.68;99433.75;5092668;28;20097;-80
2023/07/15 00:26:24;;;;;;;4.22;3.58;;;;;;;20.22;73.82;99436.22;5092829;28;20024;-80
2023/07/15 00:28:50;;;;;;;5.40;4.13;;;;;;;20.23;73.79;99437.94;5092793;28;20052;-81
2023/07/15 00:31:17;;;;;;;4.20;3.80;;;;;;;20.21;73.79;99424.81;5092983;28;20104;-80
2023/07/15 00:33:43;;;;;;;6.18;3.75;;;;;;;20.10;74.03;99406.44;5092412;28;20376;-80
2023/07/15 00:36:10;;;;;;;6.25;4.38;;;;;;;20.23;73.84;99416.78;5092824;28;20059;-80
2023/07/15 00:38:36;;;;;;;5.88;4.00;;;;;;;20.22;74.13;99423.84;5092758;28;20063;-80
2023/07/15 00:41:03;;;;;;;4.53;3.55;;;;;;;20.08;74.20;99396.00;5092345;28;20020;-80
2023/07/15 00:46:18;;;;;;;8.68;4.20;;;;;;;20.20;74.27;99407.28;5092733;28;20390;-80
2023/07/15 00:49:08;;;;;;;4.50;4.10;;;;;;;20.17;74.44;99407.56;5092338;28;20028;-80
2023/07/15 00:51:37;;;;;;;4.85;3.80;;;;;;;20.06;74.53;99400.63;5092826;28;20036;-80
2023/07/15 00:54:04;;;;;;;4.13;3.60;;;;;;;20.04;74.54;99397.25;5092238;28;20468;-83
2023/07/15 00:56:32;;;;;;;7.63;4.32;;;;;;;20.10;74.48;99407.28;5092372;28;20036;-83
2023/07/15 00:58:58;;;;;;;7.90;4.30;;;;;;;20.06;74.73;99405.06;5092191;28;20024;-83
2023/07/15 01:01:24;;;;;;;3.92;3.45;;;;;;;20.06;74.70;99408.53;5092412;28;20425;-83
2023/07/15 01:03:50;;;;;;;6.70;4.18;;;;;;;20.13;74.65;99409.63;5092033;28;20041;-83
2023/07/15 01:06:15;;;;;;;4.78;3.80;;;;;;;19.90;74.76;99372.06;5092455;28;20039;-83
2023/07/15 01:08:41;;;;;;;6.18;4.43;;;;;;;19.97;75.00;99387.38;5091862;28;20375;-83
2023/07/15 01:11:07;;;;;;;6.15;4.80;;;;;;;20.10;75.33;99403.78;5092268;28;20028;-83
2023/07/15 01:13:33;;;;;;;4.75;4.35;;;;;;;19.94;75.28;99389.31;5092228;28;20024;-83
2023/07/15 01:15:58;;;;;;;6.65;4.32;;;;;;;20.04;75.21;99399.91;5091834;28;20028;-82
2023/07/15 01:18:23;;;;;;;5.25;4.28;;;;;;;20.04;75.58;99399.06;5092078;28;20361;-83
2023/07/15 01:20:50;;;;;;;6.30;4.40;;;;;;;19.98;75.77;99400.47;5091975;28;20101;-81
2023/07/15 01:23:16;;;;;;;5.88;4.88;;;;;;;19.90;76.43;99389.75;5092350;28;20089;-80
2023/07/15 01:25:41;;;;;;;5.15;4.65;;;;;;;19.82;76.47;99384.31;5091888;28;20024;-80
2023/07/15 01:28:07;;;;;;;6.15;4.80;;;;;;;19.82;76.80;99384.31;5092209;28;20020;-81
2023/07/15 01:30:32;;;;;;;6.43;4.22;;;;;;;19.93;77.04;99406.16;5092036;28;20054;-81
2023/07/15 01:32:57;;;;;;;5.25;4.80;;;;;;;19.77;77.07;99379.44;5092022;28;20024;-81
2023/07/15 01:35:22;;;;;;;5.65;4.88;;;;;;;19.72;77.47;99376.38;5092145;28;20077;-81
2023/07/15 01:37:48;;;;;;;7.28;4.95;;;;;;;19.71;77.47;99379.97;5091542;28;20048;-81
2023/07/15 01:40:13;;;;;;;8.63;5.40;;;;;;;19.87;77.55;99404.06;5092007;28;20024;-81
2023/07/15 01:42:40;;;;;;;6.90;4.93;;;;;;;19.84;77.77;99404.31;5092047;28;20383;-81
2023/07/15 01:45:08;;;;;;;8.27;5.22;;;;;;;19.75;78.31;99394.56;5091724;28;20031;-80
2023/07/15 01:47:34;;;;;;;6.13;4.82;;;;;;;19.59;78.58;99371.31;5106598;28;20071;-81
2023/07/15 01:49:59;;;;;;;7.03;5.32;;;;;;;19.63;78.67;99390.38;5091737;28;20051;-81
2023/07/15 01:52:25;;;;;;;8.32;5.20;;;;;;;19.65;78.94;99405.13;5092022;28;20456;-80
2023/07/15 01:54:50;;;;;;;7.32;5.03;;;;;;;19.50;79.39;99385.31;5091632;28;20373;-81
2023/07/15 01:57:16;;;;;;;7.82;5.50;;;;;;;19.43;79.77;99377.09;5092308;28;20097;-81
2023/07/15 01:59:41;;;;;;;6.88;4.88;;;;;;;19.48;80.06;99381.97;5092023;28;20069;-81
2023/07/15 02:02:07;;;;;;;5.95;4.93;;;;;;;19.44;80.40;99394.59;5091542;28;20028;-80
2023/07/15 02:04:32;;;;;;;7.35;5.60;;;;;;;19.39;81.07;99398.63;5091943;28;20032;-81
2023/07/15 02:06:58;;;;;;;6.90;5.22;;;;;;;19.36;81.17;99396.25;5091445;28;20483;-80
2023/07/15 02:09:23;;;;;;;7.63;5.15;;;;;;;19.15;81.70;99367.25;5091819;28;20024;-80
2023/07/15 02:11:49;;;;;;;8.15;5.97;;;;;;;19.28;81.59;99388.16;5091420;28;20038;-81
2023/07/15 02:14:14;;;;;;;8.50;5.75;;;;;;;19.01;82.17;99349.97;5091541;28;20025;-81
2023/07/15 02:16:40;;;;;;;9.18;5.93;;;;;;;19.14;82.47;99373.50;5091430;28;20460;-81
2023/07/15 02:19:06;;;;;;;8.23;5.47;;;;;;;19.16;83.08;99392.69;5091616;28;20028;-81
2023/07/15 02:21:31;;;;;;;6.00;5.40;;;;;;;19.14;82.74;99382.25;5091643;28;20056;-81
2023/07/15 02:23:59;;;;;;;8.48;5.97;;;;;;;19.12;82.85;99397.38;5094256;28;20415;-81
2023/07/15 02:26:24;;;;;;;6.75;5.93;;;;;;;19.10;83.41;99386.13;5095304;28;20024;-80
2023/07/15 02:28:49;;;;;;;6.97;5.97;;;;;;;18.88;83.37;99357.28;5094880;28;20024;-81
2023/07/15 02:31:15;;;;;;;8.75;5.80;;;;;;;19.05;84.01;99388.34;5095007;28;20071;-81
2023/07/15 02:33:41;;;;;;;10.13;5.95;;;;;;;19.09;84.00;99394.19;5095201;28;20539;-81
2023/07/15 02:36:06;;;;;;;8.40;5.80;;;;;;;18.93;84.25;99371.75;5094760;28;20582;-81
2023/07/15 02:38:31;;;;;;;7.30;6.50;;;;;;;18.94;84.87;99373.41;5095157;28;20079;-81
2023/07/15 02:40:57;;;;;;;7.10;5.60;;;;;;;18.81;84.66;99354.31;5094830;28;20463;-81
2023/07/15 02:43:22;;;;;;;7.15;6.25;;;;;;;18.83;84.73;99362.94;5095240;28;20352;-81
2023/07/15 02:45:51;;;;;;;9.40;6.28;;;;;;;18.88;85.34;99373.13;5094760;28;20126;-80
2023/07/15 02:48:19;;;;;;;10.85;6.32;;;;;;;18.62;85.70;99357.63;5094884;28;20042;-81
2023/07/15 02:50:51;;;;;;;8.38;5.93;;;;;;;18.72;86.11;99373.59;5094708;28;20024;-80
2023/07/15 02:53:16;;;;;;;8.98;6.05;;;;;;;18.66;86.57;99366.97;5094836;28;20039;-81
2023/07/15 02:55:42;;;;;;;9.00;6.00;;;;;;;18.75;86.68;99388.28;5094865;28;20020;-81
2023/07/15 02:58:07;;;;;;;8.23;6.00;;;;;;;18.56;86.97;99365.25;5094445;28;20028;-81
2023/07/15 03:00:32;;;;;;;9.93;6.43;;;;;;;18.72;86.93;99399.13;5094435;28;20016;-81
2023/07/15 03:02:58;;;;;;;7.85;6.28;;;;;;;18.65;87.02;99383.78;5094470;28;20101;-81
2023/07/15 03:05:23;;;;;;;8.30;6.32;;;;;;;18.68;87.36;99393.25;5094598;28;20421;-81
2023/07/15 03:07:49;;;;;;;8.25;6.47;;;;;;;18.56;87.42;99375.81;5094620;28;20036;-81
2023/07/15 03:10:15;;;;;;;8.77;6.13;;;;;;;18.53;87.86;99368.16;5094368;28;20029;-80
2023/07/15 03:12:42;;;;;;;8.93;6.22;;;;;;;18.48;88.19;99371.16;5094310;28;20055;-81
2023/07/15 03:15:09;;;;;;;9.93;6.63;;;;;;;18.60;88.33;99395.69;5093982;28;20108;-80
2023/07/15 03:17:35;;;;;;;10.75;6.40;;;;;;;18.54;88.89;99391.78;5094466;28;20078;-81
2023/07/15 03:20:14;;;;;;;9.30;7.00;;;;;;;18.39;89.16;99379.84;5093935;28;20063;-81
2023/07/15 03:22:39;;;;;;;6.80;6.10;;;;;;;18.38;89.25;99372.91;5094272;28;20421;-81
2023/07/15 03:25:06;;;;;;;7.57;6.78;;;;;;;18.49;89.29;99390.47;5093934;28;20028;-81
2023/07/15 03:27:31;;;;;;;7.35;6.13;;;;;;;18.51;89.61;99384.09;5093957;28;20387;-80
2023/07/15 03:29:56;;;;;;;8.25;7.20;;;;;;;18.33;89.82;99359.25;5093970;28;20024;-81
2023/07/15 03:32:23;;;;;;;9.73;6.75;;;;;;;18.44;90.19;99378.50;5094267;28;20407;-81
2023/07/15 03:34:48;;;;;;;9.13;6.85;;;;;;;18.43;90.58;99376.84;5092941;28;20024;-81
2023/07/15 03:37:14;;;;;;;8.85;6.55;;;;;;;18.45;90.57;99382.81;5093743;28;20031;-81
2023/07/15 03:39:39;;;;;;;9.38;6.80;;;;;;;18.41;90.73;99381.41;5093471;28;20173;-81
2023/07/15 03:42:05;;;;;;;8.02;6.70;;;;;;;18.34;91.10;99363.59;5093475;28;20043;-82
2023/07/15 03:44:30;;;;;;;9.82;7.10;;;;;;;18.32;91.50;99358.41;5094010;28;20051;-82
2023/07/15 03:46:57;;;;;;;9.15;7.43;;;;;;;18.36;91.21;99361.66;5093434;28;20062;-82
2023/07/15 03:49:23;;;;;;;7.28;6.57;;;;;;;18.43;91.69;99368.91;5093746;28;20357;-82
2023/07/15 03:51:48;;;;;;;7.85;7.03;;;;;;;18.48;92.05;99378.25;5093628;28;20024;-82
2023/07/15 03:54:14;;;;;;;10.02;6.40;;;;;;;18.49;92.36;99379.91;5093190;28;20131;-82
2023/07/15 03:56:40;;;;;;;7.78;6.40;;;;;;;18.43;92.52;99365.44;5093458;28;20059;-81
2023/07/15 03:59:05;;;;;;;8.30;6.80;;;;;;;18.48;92.57;99365.06;5093293;28;20032;-81
2023/07/15 04:01:31;;;;;;;8.65;7.00;;;;;;;18.45;92.72;99359.06;5093497;28;20464;-80
2023/07/15 04:03:56;;;;;;;7.95;6.50;;;;;;;18.53;92.86;99370.78;5093233;28;20050;-81
2023/07/15 04:06:22;;;;;;;7.78;6.55;;;;;;;18.56;92.77;99366.09;5093530;28;20046;-81
2023/07/15 04:08:49;;;;;;;8.20;7.13;;;;;;;18.57;92.55;99351.94;5093228;28;20024;-81
2023/07/15 04:11:16;;;;;;;8.68;7.28;;;;;;;18.81;92.36;99369.31;5092984;28;20028;-82
2023/07/15 04:13:41;;;;;;;9.77;7.25;;;;;;;18.77;91.54;99338.88;5093422;28;20024;-82
2023/07/15 04:16:06;;;;;;;9.60;6.70;;;;;;;19.11;91.64;99371.97;5093026;28;20081;-82
2023/07/15 04:18:32;;;;;;;12.13;6.88;;;;;;;19.28;89.92;99338.81;5107868;28;20495;-82
2023/07/15 04:20:57;;;;;;;7.90;6.40;;;;;;;19.66;88.52;99329.34;5092755;28;20479;-82
2023/07/15 04:23:22;;;;;;;7.93;6.80;;;;;;;20.47;85.65;99363.41;5093111;28;20058;-82
2023/07/15 04:25:48;;;;;;;8.55;6.03;;;;;;;21.45;81.88;99360.38;5092730;28;20112;-82
2023/07/15 04:28:14;;;;;;;9.07;6.40;;;;;;;22.61;77.34;99351.50;5092892;28;20035;-82
2023/07/15 04:30:39;;;;;;;11.70;6.72;;;;;;;23.80;73.11;99386.13;5093185;28;20119;-82
2023/07/15 04:33:05;;;;;;;7.30;6.55;;;;;;;24.23;70.94;99375.38;5093116;28;20465;-82
2023/07/15 04:35:30;;;;;;;7.35;6.63;;;;;;;23.87;71.52;99368.53;5092802;28;20020;-82
2023/07/15 04:37:56;;;;;;;8.32;6.25;;;;;;;23.50;72.39;99379.53;5092342;28;20068;-82
2023/07/15 04:40:21;;;;;;;7.75;6.50;;;;;;;22.92;74.14;99332.47;5092553;28;20035;-82
2023/07/15 04:42:46;;;;;;;9.82;5.97;;;;;;;23.01;74.92;99368.72;5092884;28;20360;-82
2023/07/15 04:45:12;;;;;;;10.63;6.82;;;;;;;23.06;74.81;99373.56;5092362;28;20023;-82
2023/07/15 04:47:37;;;;;;;7.40;6.03;;;;;;;23.39;73.29;99370.06;5092820;28;20027;-82
2023/07/15 04:50:03;;;;;;;7.70;6.75;;;;;;;24.37;70.72;99374.75;5092333;28;20020;-82
2023/07/15 04:52:30;;;;;;;8.07;6.68;;;;;;;25.68;66.74;99377.94;5092442;28;20024;-82
2023/07/15 04:54:55;;;;;;;6.65;5.97;;;;;;;26.21;64.90;99354.94;5092075;28;20032;-82
2023/07/15 04:57:21;;;;;;;8.77;5.95;;;;;;;26.28;64.38;99361.19;5092336;28;20085;-82
2023/07/15 04:59:46;;;;;;;8.70;6.00;;;;;;;25.84;65.62;99380.53;5092294;28;20020;-82
2023/07/15 05:02:12;;;;;;;8.02;5.60;;;;;;;25.14;67.33;99369.84;5092216;28;20042;-82
2023/07/15 05:04:37;;;;;;;8.00;5.90;;;;;;;24.78;69.29;99382.72;5092242;28;20089;-82
2023/07/15 05:07:04;;;;;;;8.40;6.00;;;;;;;24.35;69.87;99374.06;5092095;28;20410;-82
2023/07/15 05:09:31;;;;;;;6.85;6.25;;;;;;;24.10;70.83;99389.19;5092129;28;20020;-82
2023/07/15 05:11:57;;;;;;;6.68;6.07;;;;;;;23.94;71.98;99358.09;5091960;28;20036;-82
2023/07/15 05:14:22;;;;;;;6.82;6.22;;;;;;;24.57;70.51;99381.44;5092297;28;20020;-82
2023/07/15 05:16:47;;;;;;;7.50;6.07;;;;;;;24.79;68.54;99347.09;5091935;28;20043;-82
2023/07/15 05:19:13;;;;;;;8.18;6.20;;;;;;;24.88;69.52;99370.03;5091944;28;20032;-82
2023/07/15 05:21:38;;;;;;;9.25;6.57;;;;;;;24.96;69.79;99375.34;5092089;28;20103;-82
2023/07/15 05:24:04;;;;;;;7.80;6.20;;;;;;;24.92;68.96;99391.84;5091829;28;20073;-82
2023/07/15 05:26:30;;;;;;;8.63;5.80;;;;;;;24.43;70.17;99390.06;5091927;28;20078;-82
2023/07/15 05:28:56;;;;;;;6.47;5.45;;;;;;;24.21;71.32;99399.50;5091858;28;20024;-82
2023/07/15 05:31:21;;;;;;;6.70;5.70;;;;;;;24.12;71.64;99369.41;5092116;28;20032;-82
2023/07/15 05:33:46;;;;;;;7.32;6.22;;;;;;;24.77;70.27;99381.03;5091974;28;20020;-82
2023/07/15 05:36:12;;;;;;;6.28;5.63;;;;;;;26.07;67.11;99364.53;5091720;28;20071;-82
2023/07/15 05:38:42;;;;;;;6.53;5.40;;;;;;;26.78;64.61;99378.47;5091618;28;20060;-82
2023/07/15 05:41:08;;;;;;;7.07;5.22;;;;;;;26.79;63.87;99379.28;5091825;28;20074;-82
2023/07/15 05:43:33;;;;;;;6.28;4.80;;;;;;;26.47;65.21;99381.28;5092187;28;20426;-82
2023/07/15 05:45:58;;;;;;;7.07;5.22;;;;;;;26.35;66.60;99383.50;5091868;28;20051;-83
2023/07/15 05:48:24;;;;;;;6.13;5.57;;;;;;;26.25;65.24;99358.03;5091880;28;20020;-83
2023/07/15 05:50:49;;;;;;;5.50;5.00;;;;;;;26.24;65.07;99367.91;5092028;28;20039;-83
2023/07/15 05:53:14;;;;;;;5.45;4.95;;;;;;;26.38;65.95;99382.31;5091511;28;20035;-83
2023/07/15 05:55:40;;;;;;;8.77;5.22;;;;;;;26.36;64.36;99368.31;5091736;28;20103;-83
2023/07/15 05:58:09;;;;;;;6.22;4.70;;;;;;;26.51;64.69;99392.44;5093403;28;20431;-83
2023/07/15 06:00:39;;;;;;;5.45;4.95;;;;;;;26.53;65.00;99375.19;5095866;28;20036;-83
2023/07/15 06:03:05;;;;;;;6.20;5.18;;;;;;;26.81;63.81;99374.59;5095425;28;20391;-83
2023/07/15 06:05:30;;;;;;;6.53;4.63;;;;;;;26.86;63.93;99365.03;5095769;28;20028;-83
2023/07/15 06:07:56;;;;;;;7.13;4.72;;;;;;;27.22;63.88;99392.88;5095638;28;20027;-83
2023/07/15 06:10:21;;;;;;;5.72;4.85;;;;;;;27.26;61.98;99376.31;5095230;28;20024;-83
2023/07/15 06:12:47;;;;;;;6.28;4.53;;;;;;;27.24;61.15;99353.44;5095604;28;20031;-83
2023/07/15 06:15:12;;;;;;;5.90;4.25;;;;;;;27.31;60.70;99362.38;5095311;28;20066;-83
2023/07/15 06:17:38;;;;;;;4.40;3.95;;;;;;;27.52;60.30;99362.44;5095516;28;20372;-82
2023/07/15 06:20:05;;;;;;;6.43;4.72;;;;;;;27.94;59.77;99378.75;5095270;28;20097;-82
2023/07/15 06:22:30;;;;;;;4.80;4.28;;;;;;;28.31;59.94;99397.25;5095335;28;20024;-83
2023/07/15 06:24:55;;;;;;;5.70;4.20;;;;;;;28.60;58.95;99371.34;5095277;28;20035;-83
2023/07/15 06:27:21;;;;;;;4.95;4.40;;;;;;;29.13;57.38;99382.47;5095088;28;20031;-82
2023/07/15 06:29:48;;;;;;;4.28;3.88;;;;;;;29.23;56.43;99379.41;5095287;28;20032;-83
2023/07/15 06:32:14;;;;;;;4.20;3.80;;;;;;;29.31;56.28;99365.84;5095009;28;20115;-83
2023/07/15 06:34:39;;;;;;;4.38;3.97;;;;;;;29.68;56.15;99383.34;5095053;28;20111;-83
2023/07/15 06:37:05;;;;;;;4.45;4.05;;;;;;;30.26;55.67;99381.03;5094730;28;20084;-83
2023/07/15 06:39:30;;;;;;;3.78;3.38;;;;;;;30.97;54.62;99366.09;5094778;28;20048;-83
2023/07/15 06:41:55;;;;;;;3.80;3.50;;;;;;;31.99;53.16;99359.09;5095171;28;20066;-83
2023/07/15 06:44:21;;;;;;;5.10;3.80;;;;;;;33.63;50.78;99376.63;5094711;28;20035;-83
2023/07/15 06:46:46;;;;;;;4.80;4.28;;;;;;;34.88;47.74;99373.00;5094882;28;20028;-83
2023/07/15 06:49:11;;;;;;;3.83;3.40;;;;;;;35.06;46.55;99390.19;5094549;28;20112;-83
2023/07/15 06:51:37;;;;;;;5.53;3.47;;;;;;;34.43;48.29;99383.59;5094704;28;20024;-83
2023/07/15 06:54:02;;;;;;;6.03;3.92;;;;;;;34.29;48.26;99368.63;5094757;28;20036;-83
2023/07/15 06:56:28;;;;;;;5.65;4.05;;;;;;;34.63;47.60;99367.84;5094823;28;20134;-83
2023/07/15 06:58:54;;;;;;;5.32;3.70;;;;;;;34.76;47.47;99358.66;5094717;28;20038;-84
2023/07/15 07:01:19;;;;;;;3.95;3.40;;;;;;;35.89;46.00;99383.50;5094472;28;20028;-84
2023/07/15 07:03:45;;;;;;;3.88;3.47;;;;;;;36.85;45.55;99364.50;5094592;28;20024;-81
2023/07/15 07:06:10;;;;;;;3.70;3.40;;;;;;;37.85;44.17;99359.78;5094387;28;20024;-81
2023/07/15 07:08:36;;;;;;;4.18;3.63;;;;;;;38.44;43.56;99357.06;5094279;28;20028;-81
2023/07/15 07:11:02;;;;;;;3.67;3.38;;;;;;;39.33;43.06;99361.69;5094592;28;20030;-81
2023/07/15 07:13:27;;;;;;;4.32;3.40;;;;;;;40.49;41.92;99362.09;5094417;28;20054;-82
2023/07/15 07:15:56;;;;;;;3.58;3.28;;;;;;;41.19;40.02;99364.97;5094308;28;20055;-82
2023/07/15 07:18:21;;;;;;;4.40;3.45;;;;;;;41.76;40.34;99363.63;5094034;28;20433;-81
2023/07/15 07:20:47;;;;;;;4.57;3.53;;;;;;;41.97;40.44;99353.34;5094174;28;20025;-81
2023/07/15 07:23:12;;;;;;;5.50;3.67;;;;;;;42.70;39.08;99347.00;5094119;28;20070;-81
2023/07/15 07:25:41;;;;;;;5.22;3.85;;;;;;;43.63;38.83;99355.72;5094269;28;20077;-81
2023/07/15 07:28:07;;;;;;;3.55;3.25;;;;;;;44.69;37.88;99362.50;5094045;28;20461;-82
2023/07/15 07:30:32;;;;;;;4.20;3.60;;;;;;;45.45;36.99;99376.66;5093941;28;20111;-82
2023/07/15 07:32:58;;;;;;;4.38;3.97;;;;;;;44.74;36.62;99365.97;5094048;28;20032;-82
2023/07/15 07:35:23;;;;;;;6.03;3.28;;;;;;;43.89;37.63;99356.16;5093790;28;20429;-82
2023/07/15 07:37:49;;;;;;;3.83;3.42;;;;;;;44.00;37.56;99351.34;5093680;28;20445;-82
2023/07/15 07:40:14;;;;;;;3.78;3.47;;;;;;;44.63;37.56;99370.03;5093896;28;20032;-82
2023/07/15 07:42:40;;;;;;;3.67;3.38;;;;;;;44.42;36.69;99368.78;5093934;28;20557;-82
2023/07/15 07:45:15;;;;;;;3.55;3.25;;;;;;;44.25;37.53;99358.34;5093666;28;20115;-82
2023/07/15 07:47:41;;;;;;;4.05;3.55;;;;;;;43.89;37.53;99358.91;5093763;28;20039;-82
2023/07/15 07:50:06;;;;;;;5.50;3.55;;;;;;;43.58;37.75;99350.31;5093370;28;20060;-82
2023/07/15 07:52:32;;;;;;;3.90;3.60;;;;;;;43.85;38.05;99362.56;5093788;28;20025;-82
2023/07/15 07:54:57;;;;;;;3.70;3.30;;;;;;;44.40;38.12;99360.81;5093756;28;20424;-82
2023/07/15 07:57:22;;;;;;;4.38;3.70;;;;;;;44.92;37.00;99347.75;5093379;28;20036;-82
2023/07/15 07:59:48;;;;;;;4.00;3.60;;;;;;;44.98;37.51;99353.97;5092686;28;20069;-82
2023/07/15 08:02:13;;;;;;;4.57;3.70;;;;;;;45.19;40.28;99344.19;5092930;28;20065;-83
2023/07/15 08:04:38;;;;;;;4.15;3.58;;;;;;;45.42;40.82;99338.78;5092849;28;20024;-82
2023/07/15 08:07:04;;;;;;;4.05;3.72;;;;;;;45.72;39.29;99326.22;5092991;28;20054;-82
2023/07/15 08:09:29;;;;;;;5.88;3.92;;;;;;;45.58;37.46;99337.31;5092889;28;20024;-81
2023/07/15 08:11:55;;;;;;;3.42;3.13;;;;;;;45.36;37.71;99335.31;5093202;28;20024;-81
2023/07/15 08:14:20;;;;;;;4.70;4.07;;;;;;;44.44;37.59;99339.88;5092865;28;20031;-81
2023/07/15 08:16:45;;;;;;;3.90;3.53;;;;;;;43.47;39.11;99333.19;5093037;28;20067;-81
2023/07/15 08:19:11;;;;;;;4.90;3.80;;;;;;;42.08;39.47;99335.75;5092782;28;20028;-81
2023/07/15 08:21:37;;;;;;;4.78;3.63;;;;;;;40.45;41.11;99308.34;5092774;28;20467;-81
2023/07/15 08:24:02;;;;;;;3.97;3.67;;;;;;;39.33;42.42;99328.97;5093179;28;20031;-81
2023/07/15 08:26:28;;;;;;;3.78;3.28;;;;;;;38.30;43.46;99326.72;5092984;28;20028;-81
2023/07/15 08:28:55;;;;;;;3.80;3.50;;;;;;;37.35;45.35;99322.81;5092789;28;20024;-81
2023/07/15 08:31:20;;;;;;;3.65;3.30;;;;;;;36.48;45.78;99302.66;5092528;28;20028;-82
2023/07/15 08:33:46;;;;;;;5.05;3.22;;;;;;;35.67;46.48;99302.09;5092767;28;20028;-83
2023/07/15 08:36:11;;;;;;;3.90;3.60;;;;;;;35.11;47.54;99288.31;5092756;28;20032;-83
2023/07/15 08:38:37;;;;;;;4.35;3.55;;;;;;;34.72;48.19;99296.13;5092448;28;20131;-83
2023/07/15 08:41:02;;;;;;;3.55;3.20;;;;;;;34.47;49.29;99325.25;5093035;28;20031;-83
2023/07/15 08:43:30;;;;;;;4.13;3.38;;;;;;;34.01;49.88;99326.88;5092413;28;20036;-83
2023/07/15 08:45:58;;;;;;;3.97;3.58;;;;;;;33.51;52.44;99302.84;5091970;28;20117;-83
2023/07/15 08:48:24;;;;;;;3.63;3.20;;;;;;;33.45;52.50;99295.66;5091866;28;20037;-83
2023/07/15 08:50:49;;;;;;;3.30;3.00;;;;;;;33.51;51.40;99319.88;5092591;28;20073;-83
2023/07/15 08:53:23;;;;;;;4.25;3.53;;;;;;;33.43;50.83;99325.56;5092393;28;20039;-83
2023/07/15 08:55:50;;;;;;;4.20;3.20;;;;;;;33.24;52.51;99319.34;5092769;28;20502;-83
2023/07/15 08:58:16;;;;;;;5.60;3.47;;;;;;;33.00;50.93;99299.53;5091433;28;20032;-83
2023/07/15 09:00:42;;;;;;;3.20;2.90;;;;;;;32.94;52.27;99313.06;5091720;28;20034;-83
2023/07/15 09:03:07;;;;;;;5.00;3.97;;;;;;;32.89;52.92;99316.41;5091542;28;20122;-83
2023/07/15 09:05:33;;;;;;;4.50;3.30;;;;;;;32.73;53.12;99293.56;5091669;28;20149;-82
2023/07/15 09:07:59;;;;;;;4.18;3.40;;;;;;;32.83;53.46;99303.00;5091864;28;20028;-83
2023/07/15 09:10:28;;;;;;;6.70;4.25;;;;;;;32.74;52.32;99289.84;5091278;28;20020;-82
2023/07/15 09:12:54;;;;;;;4.20;3.80;;;;;;;32.76;52.81;99316.56;5089403;28;20425;-82
2023/07/15 09:15:20;;;;;;;5.18;3.70;;;;;;;32.73;52.52;99304.34;5090530;28;20078;-81
2023/07/15 09:17:56;;;;;;;4.63;4.22;;;;;;;32.47;51.73;99297.34;5092165;28;20051;-84
2023/07/15 09:20:24;;;;;;;3.75;3.28;;;;;;;32.41;51.16;99322.53;5091380;28;20036;-82
2023/07/15 09:22:58;;;;;;;4.10;3.67;;;;;;;32.09;51.52;99280.47;5091463;28;20494;-81
2023/07/15 09:25:24;;;;;;;10.02;5.18;;;;;;;32.07;51.91;99302.25;5091253;28;20138;-82
2023/07/15 09:27:50;;;;;;;3.53;3.10;;;;;;;31.99;51.07;99322.19;5090158;28;20020;-81
2023/07/15 09:30:16;;;;;;;5.88;3.85;;;;;;;31.80;52.69;99293.50;5088857;28;20028;-79
2023/07/15 09:32:41;;;;;;;4.57;3.63;;;;;;;31.84;52.79;99296.63;5092599;28;20032;-81
2023/07/15 09:35:07;;;;;;;3.50;3.20;;;;;;;31.77;52.22;99291.22;5095867;28;20035;-80
2023/07/15 09:37:33;;;;;;;3.97;3.40;;;;;;;31.81;52.83;99284.38;5093720;28;20036;-81
2023/07/15 09:40:01;;;;;;;4.00;3.60;;;;;;;32.05;53.21;99290.88;5093924;28;20016;-80
2023/07/15 09:42:29;;;;;;;6.68;3.20;;;;;;;32.10;52.96;99288.31;5092936;28;20039;-81
2023/07/15 09:44:55;;;;;;;3.90;3.50;;;;;;;32.11;52.77;99279.22;5096062;28;20085;-80
2023/07/15 09:47:21;;;;;;;3.67;3.22;;;;;;;32.16;51.48;99290.16;5094878;28;20031;-81
2023/07/15 09:49:46;;;;;;;3.85;3.28;;;;;;;31.91;51.84;99279.38;5095291;28;20035;-80
2023/07/15 09:52:14;;;;;;;4.18;3.30;;;;;;;32.00;52.65;99302.28;5093838;28;20046;-79
2023/07/15 09:54:42;;;;;;;5.00;3.40;;;;;;;31.94;50.49;99270.00;5095154;28;20020;-81
2023/07/15 09:57:11;;;;;;;5.25;3.42;;;;;;;32.06;50.46;99303.28;5095221;28;20043;-81
2023/07/15 09:59:48;;;;;;;4.45;3.03;;;;;;;32.02;51.96;99272.44;5095872;28;20023;-81
2023/07/15 10:02:33;;;;;;;3.80;3.35;;;;;;;32.22;51.52;99288.44;5095440;28;20073;-81
2023/07/15 10:05:04;;;;;;;3.33;3.03;;;;;;;32.42;50.82;99283.72;5095635;28;20028;-81
2023/07/15 10:07:30;;;;;;;4.45;3.03;;;;;;;32.56;48.76;99288.97;5095324;28;20036;-81
2023/07/15 10:09:59;;;;;;;3.53;2.70;;;;;;;32.58;49.75;99289.59;5095675;28;20115;-81
2023/07/15 10:12:27;;;;;;;3.05;2.80;;;;;;;32.38;47.87;99262.81;5095471;28;20108;-81
2023/07/15 10:14:52;;;;;;;3.53;2.97;;;;;;;32.51;49.46;99284.25;5095379;28;20024;-81
2023/07/15 10:17:18;;;;;;;3.25;2.95;;;;;;;32.60;49.54;99290.19;5095110;28;20379;-81
2023/07/15 10:19:50;;;;;;;4.13;3.00;;;;;;;32.63;47.90;99293.25;5095541;28;20028;-82
2023/07/15 10:22:21;;;;;;;4.85;3.20;;;;;;;32.58;47.69;99276.13;5094834;28;20024;-81
2023/07/15 10:24:56;;;;;;;;;;;;;;;32.68;48.41;99298.81;5095881;28;20028;-82
2023/07/15 10:27:26;;;;;;;3.92;3.13;;;;;;;32.64;48.46;99280.59;5095040;28;19915;-81
2023/07/15 10:30:26;;;;;;;2.95;2.70;;;;;;;32.72;46.99;99291.91;5095155;28;20060;-81
2023/07/15 10:33:01;;;;;;;5.60;3.38;;;;;;;32.45;48.08;99277.06;5095333;28;20035;-81
2023/07/15 10:35:32;;;;;;;3.20;2.90;;;;;;;32.43;47.49;99279.16;5091580;28;20024;-81
2023/07/15 10:38:02;;;;;;;3.38;2.70;;;;;;;32.21;48.69;99260.69;5074520;28;20048;-81
2023/07/15 10:40:46;;;;;;;2.97;2.78;;;;;;;32.24;48.94;99281.78;5074220;28;20383;-81
2023/07/15 10:43:11;;;;;;;2.92;2.60;;;;;;;32.30;48.90;99277.38;5073991;28;20051;-81
2023/07/15 10:45:43;;;;;;;3.15;2.80;;;;;;;32.30;48.77;99259.34;5074290;28;20025;-81
2023/07/15 10:48:11;;;;;;;2.90;2.70;;;;;;;32.54;48.40;99283.81;5074279;28;20029;-82
2023/07/15 10:50:38;;;;;;;4.53;3.03;;;;;;;32.63;48.20;99284.34;5073927;28;20430;-81
2023/07/15 10:53:20;;;;;;;4.78;3.15;;;;;;;32.52;49.21;99299.38;5074224;28;20032;-82
2023/07/15 10:55:53;;;;;;;4.28;3.20;;;;;;;32.24;49.47;99260.25;5074439;28;20024;-82
2023/07/15 10:58:18;;;;;;;5.22;2.90;;;;;;;32.22;49.39;99269.56;5073990;28;20108;-82
2023/07/15 11:00:44;;;;;;;3.53;3.08;;;;;;;32.24;49.57;99287.19;5073907;28;20159;-80
2023/07/15 11:03:09;;;;;;;3.72;3.00;;;;;;;32.17;50.50;99289.09;5074119;28;20086;-80
2023/07/15 11:05:35;;;;;;;4.47;3.17;;;;;;;31.99;49.98;99276.41;5073780;28;20020;-81
2023/07/15 11:08:04;;;;;;;3.63;3.10;;;;;;;31.91;52.04;99263.22;5073873;28;20163;-80
2023/07/15 11:10:33;;;;;;;4.57;2.97;;;;;;;32.09;51.50;99258.91;5073795;28;20031;-79
2023/07/15 11:13:16;;;;;;;4.78;2.67;;;;;;;32.13;47.37;99252.88;5074056;28;20035;-79
2023/07/15 11:15:44;;;;;;;3.88;2.60;;;;;;;32.21;46.05;99252.59;5073924;28;20067;-79
2023/07/15 11:18:19;;;;;;;4.03;2.53;;;;;;;32.19;45.92;99249.28;5073784;28;20020;-80
2023/07/15 11:20:46;;;;;;;3.53;2.70;;;;;;;32.42;44.90;99264.03;5074122;28;20025;-80
2023/07/15 11:23:11;;;;;;;4.43;2.67;;;;;;;32.29;46.46;99254.19;5074135;28;20067;-80
2023/07/15 11:25:37;;;;;;;3.50;2.90;;;;;;;32.38;46.62;99273.59;5073816;28;20056;-80
2023/07/15 11:28:03;;;;;;;3.35;2.80;;;;;;;32.41;46.81;99268.59;5074083;28;20373;-79
2023/07/15 11:30:36;;;;;;;2.80;2.50;;;;;;;32.35;47.40;99242.50;5073426;28;20069;-80
2023/07/15 11:33:06;;;;;;;4.32;2.67;;;;;;;32.38;46.87;99242.09;5088335;28;20036;-82
2023/07/15 11:35:37;;;;;;;3.08;2.83;;;;;;;32.58;46.66;99259.94;5073613;28;20483;-81